M I D A S
Marine Information and Data Acquisition System
Tripno 1246 of the Zeeleeuw from 2007-04-17 08:41:57 to 2007-04-17 12:48:01
Back to CruiseResearch ActivitiesStationsMapUnderway DataData graphs

EquipmentUnitsComment
TimeDGPSUTC
LatitudeDGPSDM.mWGS84
LongitudeDGPSDM.mWGS84
TemperatureSBE03/SBE38deg celciusITS90
ConductivitySBE21S/mITS90
SalinitySBE21 Practical Salinity Units
ChlorophylAChelsea fluorimeterg/lCalibrated in Aceton
Missing or incorrect values are displayed as -999
Sea surface data collected by the RV Zeeleeuw from 2007-04-17 08:44:07 to 2007-04-17 13:00:31
Time Latitude Longitude Temperature Conductivity Salinity ChlorophylA
2007-04-17 08:45:12 51°13.613 2°56.055 19.4082 0.000256 0.011416 -2.871232
2007-04-17 08:46:12 51°13.638 2°55.97 19.4156 0.000256 0.011415 -2.871232
2007-04-17 08:47:12 51°13.668 2°55.88 19.4195 0.000256 0.011415 -2.871232
2007-04-17 08:48:11 51°13.691 2°55.8 19.3778 0.000256 0.011414 -2.871232
2007-04-17 08:49:11 51°13.706 2°55.742 19.438 0.000256 0.011413 -2.871232
2007-04-17 08:50:11 51°13.706 2°55.743 19.3713 0.000256 0.011412 -2.871232
2007-04-17 08:51:12 51°13.702 2°55.723 19.4056 0.000256 0.011408 -2.871232
2007-04-17 08:52:11 51°13.718 2°55.743 19.3457 0.000256 0.011406 -2.871232
2007-04-17 08:53:12 51°13.707 2°55.743 19.4351 0.000256 0.011401 -2.871232
2007-04-17 08:54:11 51°13.738 2°55.719 19.3865 0.000256 0.011397 -2.871232
2007-04-17 08:55:11 51°13.831 2°55.638 15.9842 0.108107 0.560305 -2.871232
2007-04-17 08:56:11 51°13.949 2°55.548 13.4436 3.333026 25.552151 -2.871232
2007-04-17 08:57:11 51°14.078 2°55.452 13.3167 3.308191 25.929909 -2.871232
2007-04-17 08:58:11 51°14.202 2°55.344 13.2293 3.322582 26.164719 -2.871232
2007-04-17 08:59:11 51°14.315 2°55.155 13.178 3.34691 26.427672 -2.871232
2007-04-17 09:00:11 51°14.419 2°54.873 13.1794 3.428186 27.174442 -2.871232
2007-04-17 09:01:11 51°14.511 2°54.549 12.8554 3.59213 28.731299 -2.871232
2007-04-17 09:02:11 51°14.583 2°54.204 12.7081 3.6114 29.097306 -2.871232
2007-04-17 09:03:11 51°14.629 2°53.851 12.553 3.609537 29.19428 -2.871232
2007-04-17 09:04:11 51°14.649 2°53.494 12.3557 3.600113 29.263589 -2.871232
2007-04-17 09:05:11 51°14.65 2°53.131 12.0426 3.587271 29.340697 -2.871232
2007-04-17 09:06:11 51°14.652 2°52.765 11.9517 3.574948 29.413053 -2.871232
2007-04-17 09:07:11 51°14.619 2°52.392 11.993 3.574224 29.443417 -2.871232
2007-04-17 09:08:11 51°14.535 2°52.038 11.933 3.575466 29.444099 -2.871232
2007-04-17 09:09:11 51°14.446 2°51.684 11.9054 3.568009 29.407232 -2.871232
2007-04-17 09:10:11 51°14.36 2°51.327 11.916 3.567388 29.426478 -2.871232
2007-04-17 09:11:11 51°14.274 2°50.969 11.8977 3.562417 29.384528 -2.871232
2007-04-17 09:12:11 51°14.186 2°50.61 11.9611 3.560345 29.369125 -2.871232
2007-04-17 09:13:11 51°14.104 2°50.297 11.9114 3.570599 29.454447 -2.871232
2007-04-17 09:14:11 51°14.016 2°50.205 11.8877 3.570806 29.469909 -2.871232
2007-04-17 09:15:11 51°13.973 2°50.146 11.8925 3.569875 29.489964 -2.871232
2007-04-17 09:16:11 51°13.939 2°50.082 11.9813 3.568632 29.466414 -2.871232
2007-04-17 09:17:11 51°13.919 2°49.984 11.913 3.569978 29.443051 -2.871232
2007-04-17 09:18:11 51°13.922 2°49.865 11.8797 3.568839 29.479752 -2.871232
2007-04-17 09:19:11 51°13.923 2°49.742 11.882 3.568114 29.479543 -2.871232
2007-04-17 09:20:11 51°13.913 2°49.64 11.9204 3.56801 29.48217 -2.871232
2007-04-17 09:21:11 51°13.9 2°49.559 11.9179 3.568114 29.45881 -2.871232
2007-04-17 09:22:11 51°13.882 2°49.474 11.9117 3.568321 29.462137 -2.871232
2007-04-17 09:23:11 51°13.863 2°49.385 11.8883 3.568321 29.468569 -2.871232
2007-04-17 09:24:11 51°13.842 2°49.302 11.9052 3.568114 29.479543 -2.871232
2007-04-17 09:25:11 51°13.816 2°49.223 11.9091 3.5677 29.479321 -2.871232
2007-04-17 09:26:11 51°13.787 2°49.144 11.899 3.567803 29.470972 -2.871232
2007-04-17 09:27:11 51°13.758 2°49.064 11.9064 3.567907 29.473351 -2.871232
2007-04-17 09:28:11 51°13.733 2°48.985 11.918 3.567699 29.4593 -2.871232
2007-04-17 09:29:11 51°13.709 2°48.906 11.9264 3.567907 29.464057 -2.871232
2007-04-17 09:30:11 51°13.685 2°48.827 11.9179 3.566664 29.449808 -2.871232
2007-04-17 09:31:11 51°13.659 2°48.749 11.9141 3.566456 29.445054 -2.871232
2007-04-17 09:32:11 51°13.631 2°48.672 11.9006 3.567389 29.462884 -2.871232
2007-04-17 09:33:11 51°13.599 2°48.597 11.9084 3.567596 29.464068 -2.871232
2007-04-17 09:34:11 51°13.565 2°48.525 11.8951 3.5677 29.470022 -2.871232
2007-04-17 09:35:11 51°13.532 2°48.451 11.9007 3.56801 29.483602 -2.871232
2007-04-17 09:36:11 51°13.503 2°48.377 11.8896 3.566042 29.4677 -2.871232
2007-04-17 09:37:11 51°13.476 2°48.302 11.8846 3.567493 29.486725 -2.871232
2007-04-17 09:38:11 51°13.454 2°48.225 11.8748 3.5677 29.496504 -2.871232
2007-04-17 09:39:11 51°13.433 2°48.149 11.8611 3.567596 29.502002 -2.871232
2007-04-17 09:40:11 51°13.414 2°48.073 11.8705 3.567286 29.502017 -2.871232
2007-04-17 09:41:11 51°13.398 2°47.997 11.878 3.566975 29.487702 -2.871232
2007-04-17 09:42:11 51°13.389 2°47.926 11.8631 3.566975 29.492716 -2.871232
2007-04-17 09:43:11 51°13.383 2°47.859 11.8653 3.566561 29.491779 -2.871232
2007-04-17 09:44:11 51°13.385 2°47.802 11.8596 3.566353 29.490595 -2.871232
2007-04-17 09:45:11 51°13.386 2°47.76 11.8449 3.566043 29.496342 -2.871232
2007-04-17 09:46:11 51°13.38 2°47.727 11.8503 3.565525 29.502341 -2.871232
2007-04-17 09:47:11 51°13.371 2°47.701 11.849 3.565111 29.49782 -2.871232
2007-04-17 09:48:11 51°13.373 2°47.663 11.8315 3.562832 29.484063 -2.871232
2007-04-17 09:49:11 51°13.416 2°47.675 11.845 3.5648 29.497835 -2.871232
2007-04-17 09:50:11 51°13.426 2°47.829 11.8063 3.56335 29.500297 -2.871232
2007-04-17 09:51:11 51°13.457 2°48.065 11.8204 3.562625 29.501529 -2.871232
2007-04-17 09:52:11 51°13.433 2°48.173 11.8069 3.561072 29.485817 -2.871232
2007-04-17 09:53:11 51°13.417 2°48.172 11.8316 3.561279 29.481982 -2.871232
2007-04-17 09:54:11 51°13.403 2°48.162 11.834 3.563039 29.4874 -2.871232
2007-04-17 09:55:11 51°13.386 2°48.152 11.8454 3.563247 29.483567 -2.871232
2007-04-17 09:56:11 51°13.369 2°48.145 11.8526 3.564179 29.484959 -2.871232
2007-04-17 09:57:11 51°13.348 2°48.151 11.8839 3.565318 29.488253 -2.871232
2007-04-17 09:58:11 51°13.336 2°48.21 11.8644 3.56625 29.491077 -2.871232
2007-04-17 09:59:11 51°13.38 2°48.346 11.8539 3.566354 29.500628 -2.871232
2007-04-17 10:00:11 51°13.483 2°48.605 11.8795 3.566871 29.501798 -2.871232
2007-04-17 10:01:11 51°13.603 2°48.877 11.8947 3.566871 29.486752 -2.871232
2007-04-17 10:02:11 51°13.722 2°49.151 11.9076 3.567285 29.474806 -2.871232
2007-04-17 10:03:11 51°13.842 2°49.427 11.8799 3.567285 29.469799 -2.871232
2007-04-17 10:04:11 51°13.961 2°49.699 11.8553 3.56625 29.485347 -2.871232
2007-04-17 10:05:11 51°14.079 2°49.973 11.83 3.565422 29.499239 -2.871232
2007-04-17 10:06:11 51°14.198 2°50.25 11.7672 3.562936 29.520907 -2.871232
2007-04-17 10:07:11 51°14.316 2°50.526 11.8165 3.560969 29.519342 -2.871232
2007-04-17 10:08:11 51°14.38 2°50.7 11.8775 3.562936 29.482147 -2.871232
2007-04-17 10:09:11 51°14.374 2°50.803 11.9013 3.563453 29.453248 -2.871232
2007-04-17 10:10:11 51°14.321 2°50.846 11.9221 3.563556 29.429187 -2.871232
2007-04-17 10:11:11 51°14.265 2°50.813 11.9324 3.565213 29.437235 -2.871232
2007-04-17 10:12:11 51°14.216 2°50.742 11.9203 3.565835 29.444358 -2.871232
2007-04-17 10:13:11 51°14.17 2°50.662 11.9274 3.566664 29.44838 -2.871232
2007-04-17 10:14:11 51°14.126 2°50.594 11.919 3.567181 29.45384 -2.871232
2007-04-17 10:15:11 51°14.084 2°50.542 11.9118 3.567285 29.459791 -2.871232
2007-04-17 10:16:11 51°14.045 2°50.495 11.9115 3.567285 29.46122 -2.871232
2007-04-17 10:17:11 51°14.007 2°50.45 11.9141 3.567699 29.465732 -2.871232
2007-04-17 10:18:11 51°13.975 2°50.405 11.9175 3.568321 29.475004 -2.871232
2007-04-17 10:19:11 51°13.964 2°50.352 11.918 3.568942 29.477126 -2.871232
2007-04-17 10:20:11 51°13.972 2°50.301 11.9234 3.56915 29.477594 -2.871232
2007-04-17 10:21:11 51°13.991 2°50.261 11.9213 3.569667 29.477336 -2.871232
2007-04-17 10:22:11 51°14.019 2°50.235 11.9074 3.56915 29.47831 -2.871232
2007-04-17 10:23:11 51°14.053 2°50.233 11.8697 3.568114 29.485983 -2.871232
2007-04-17 10:24:11 51°14.086 2°50.26 11.8186 3.566768 29.504432 -2.871232
2007-04-17 10:25:11 51°14.11 2°50.319 11.7875 3.563868 29.52301 -2.871232
2007-04-17 10:26:11 51°14.132 2°50.396 11.79 3.561279 29.512135 -2.871232
2007-04-17 10:27:11 51°14.159 2°50.482 11.7833 3.561486 29.512603 -2.871232
2007-04-17 10:28:11 51°14.181 2°50.581 11.7729 3.562108 29.527666 -2.871232
2007-04-17 10:29:11 51°14.205 2°50.677 11.8041 3.561487 29.521949 -2.871232
2007-04-17 10:30:11 51°14.233 2°50.771 11.8272 3.561797 29.493197 -2.871232
2007-04-17 10:31:11 51°14.261 2°50.867 11.8453 3.565008 29.512652 -2.871232
2007-04-17 10:32:11 51°14.289 2°50.963 11.8635 3.565214 29.495186 -2.871232
2007-04-17 10:33:11 51°14.316 2°51.052 11.8854 3.559621 29.430962 -2.871232
2007-04-17 10:34:11 51°14.339 2°51.134 11.914 3.562107 29.435179 -2.871232
2007-04-17 10:35:11 51°14.359 2°51.212 11.9384 3.567699 29.460015 -2.871232
2007-04-17 10:36:11 51°14.379 2°51.289 11.9343 3.568528 29.456178 -2.871232
2007-04-17 10:37:11 51°14.401 2°51.367 11.9425 3.568217 29.457616 -2.871232
2007-04-17 10:38:11 51°14.419 2°51.448 11.9476 3.568631 29.452128 -2.871232
2007-04-17 10:39:11 51°14.426 2°51.535 11.9407 3.568424 29.448089 -2.871232
2007-04-17 10:40:11 51°14.423 2°51.62 11.9438 3.56801 29.44715 -2.871232
2007-04-17 10:41:11 51°14.404 2°51.702 11.9569 3.568217 29.448333 -2.871232
2007-04-17 10:42:11 51°14.372 2°51.744 11.9483 3.569874 29.458515 -2.871232
2007-04-17 10:43:11 51°14.35 2°51.772 11.963 3.569978 29.455894 -2.871232
2007-04-17 10:44:11 51°14.334 2°51.804 11.9821 3.570392 29.449697 -2.871232
2007-04-17 10:45:11 51°14.323 2°51.84 11.9944 3.570288 29.433776 -2.871232
2007-04-17 10:46:11 51°14.319 2°51.88 12.0017 3.572256 29.441804 -2.871232
2007-04-17 10:47:11 51°14.319 2°51.922 12.0068 3.573499 29.44961 -2.871232
2007-04-17 10:48:11 51°14.31 2°51.979 12.0008 3.574535 29.458371 -2.871232
2007-04-17 10:49:11 51°14.263 2°51.983 11.9742 3.575156 29.473328 -2.871232
2007-04-17 10:50:11 51°14.282 2°51.9 11.9606 3.575156 29.491176 -2.871232
2007-04-17 10:51:11 51°14.339 2°51.783 11.9724 3.57381 29.487419 -2.871232
2007-04-17 10:52:11 51°14.393 2°51.587 11.9695 3.573188 29.462453 -2.871232
2007-04-17 10:53:11 51°14.39 2°51.49 11.9341 3.571014 29.468236 -2.871232
2007-04-17 10:54:11 51°14.386 2°51.494 11.9124 3.568942 29.469262 -2.871232
2007-04-17 10:55:11 51°14.381 2°51.501 11.9019 3.568114 29.473105 -2.871232
2007-04-17 10:56:11 51°14.379 2°51.511 11.8975 3.5677 29.474313 -2.871232
2007-04-17 10:57:11 51°14.38 2°51.521 11.9052 3.5677 29.472883 -2.871232
2007-04-17 10:58:11 51°14.384 2°51.534 11.9155 3.566249 29.458158 -2.871232
2007-04-17 10:59:11 51°14.39 2°51.547 11.9211 3.567492 29.461689 -2.871232
2007-04-17 11:00:11 51°14.398 2°51.565 11.9182 3.568424 29.46523 -2.871232
2007-04-17 11:01:11 51°14.406 2°51.587 11.9136 3.564385 29.431783 -2.871232
2007-04-17 11:02:11 51°14.416 2°51.61 11.9155 3.568424 29.468804 -2.871232
2007-04-17 11:03:11 51°14.426 2°51.633 11.9175 3.568321 29.463566 -2.871232
2007-04-17 11:04:11 51°14.441 2°51.645 11.9231 3.564696 29.430348 -2.871232
2007-04-17 11:05:11 51°14.465 2°51.635 11.9315 3.564385 29.421079 -2.871232
2007-04-17 11:06:11 51°14.487 2°51.609 11.9134 3.567285 29.447647 -2.871232
2007-04-17 11:07:11 51°14.512 2°51.582 11.8904 3.565317 29.445326 -2.871232
2007-04-17 11:08:11 51°14.54 2°51.569 11.9055 3.569461 29.499765 -2.871232
2007-04-17 11:09:11 51°14.564 2°51.573 11.9162 3.570082 29.486855 -2.871232
2007-04-17 11:10:11 51°14.584 2°51.587 11.9119 3.570185 29.484943 -2.871232
2007-04-17 11:11:11 51°14.6 2°51.608 11.9119 3.569978 29.488051 -2.871232
2007-04-17 11:12:11 51°14.623 2°51.6 11.907 3.569875 29.489248 -2.871232
2007-04-17 11:13:11 51°14.608 2°51.512 11.8377 3.568736 29.502425 -2.871232
2007-04-17 11:14:11 51°14.543 2°51.259 11.7807 3.56449 29.515791 -2.871232
2007-04-17 11:15:11 51°14.442 2°51.001 11.7851 3.561901 29.514976 -2.871232
2007-04-17 11:16:11 51°14.342 2°50.739 11.7891 3.561279 29.510698 -2.871232
2007-04-17 11:17:11 51°14.243 2°50.477 11.7953 3.559311 29.481832 -2.871232
2007-04-17 11:18:11 51°14.145 2°50.215 11.8198 3.559932 29.47463 -2.871232
2007-04-17 11:19:11 51°14.047 2°49.954 11.8503 3.564179 29.489977 -2.871232
2007-04-17 11:20:11 51°13.948 2°49.694 11.8951 3.566561 29.487482 -2.871232
2007-04-17 11:21:11 51°13.852 2°49.435 11.8783 3.567389 29.480049 -2.871232
2007-04-17 11:22:11 51°13.753 2°49.178 11.8883 3.560346 29.420461 -2.871232
2007-04-17 11:23:11 51°13.655 2°48.92 11.8692 3.563453 29.453248 -2.871232
2007-04-17 11:24:11 51°13.558 2°48.659 11.8691 3.562107 29.438038 -2.871232
2007-04-17 11:25:11 51°13.46 2°48.399 11.8677 3.562521 29.444697 -2.871232
2007-04-17 11:26:11 51°13.361 2°48.139 11.8591 3.564386 29.473967 -2.871232
2007-04-17 11:27:11 51°13.264 2°47.876 11.8401 3.565214 29.489452 -2.871232
2007-04-17 11:28:11 51°13.164 2°47.613 11.8369 3.567493 29.514675 -2.871232
2007-04-17 11:29:11 51°13.064 2°47.351 11.8078 3.571429 29.570224 -2.871232
2007-04-17 11:30:11 51°12.99 2°47.067 11.7818 3.572569 29.590051 -2.871232
2007-04-17 11:31:11 51°12.921 2°46.777 11.7675 3.573294 29.623386 -2.871232
2007-04-17 11:32:11 51°12.853 2°46.485 11.7552 3.573916 29.642822 -2.871232
2007-04-17 11:33:11 51°12.783 2°46.194 11.7148 3.574538 29.657939 -2.871232
2007-04-17 11:34:11 51°12.715 2°45.9 11.6589 3.578578 29.73719 -2.871232
2007-04-17 11:35:11 51°12.658 2°45.743 11.6045 3.580754 29.808928 -2.871232
2007-04-17 11:36:11 51°12.608 2°45.714 11.5982 3.580961 29.838576 -2.871232
2007-04-17 11:37:11 51°12.573 2°45.661 11.5781 3.580962 29.851732 -2.871232
2007-04-17 11:38:11 51°12.592 2°45.575 11.5965 3.580858 29.857355 -2.871232
2007-04-17 11:39:11 51°12.627 2°45.518 11.5627 3.581273 29.866313 -2.871232
2007-04-17 11:40:11 51°12.663 2°45.456 11.5494 3.582619 29.894897 -2.871232
2007-04-17 11:41:11 51°12.699 2°45.394 11.5291 3.585727 29.934696 -2.871232
2007-04-17 11:42:11 51°12.706 2°45.329 11.5089 3.58811 29.974425 -2.871232
2007-04-17 11:43:12 51°12.691 2°45.236 11.4843 3.589456 30.005328 -2.871232
2007-04-17 11:44:11 51°12.683 2°45.148 11.4728 3.58925 30.018889 -2.871232
2007-04-17 11:45:11 51°12.652 2°45.083 11.4624 3.589043 30.030249 -2.871232
2007-04-17 11:46:11 51°12.618 2°45.016 11.4472 3.589457 30.039269 -2.871232
2007-04-17 11:47:11 51°12.59 2°44.942 11.4419 3.589664 30.053758 -2.871232
2007-04-17 11:48:12 51°12.554 2°44.873 11.438 3.590493 30.06442 -2.871232
2007-04-17 11:49:11 51°12.516 2°44.808 11.4382 3.591425 30.079008 -2.871232
2007-04-17 11:50:11 51°12.481 2°44.738 11.437 3.592565 30.091086 -2.871232
2007-04-17 11:51:11 51°12.449 2°44.663 11.437 3.593601 30.102942 -2.871232
2007-04-17 11:52:11 51°12.419 2°44.585 11.4318 3.595051 30.11569 -2.871232
2007-04-17 11:53:11 51°12.383 2°44.513 11.4276 3.595776 30.129851 -2.871232
2007-04-17 11:54:11 51°12.352 2°44.437 11.4248 3.597226 30.141861 -2.871232
2007-04-17 11:55:11 51°12.324 2°44.361 11.4207 3.598884 30.157282 -2.871232
2007-04-17 11:56:11 51°12.291 2°44.29 11.4224 3.600437 30.175455 -2.871232
2007-04-17 11:57:11 51°12.259 2°44.219 11.4227 3.602613 30.192728 -2.871232
2007-04-17 11:58:11 51°12.228 2°44.146 11.4246 3.604788 30.213719 -2.871232
2007-04-17 11:59:12 51°12.198 2°44.069 11.4295 3.607792 30.240937 -2.871232
2007-04-17 12:00:11 51°12.173 2°43.99 11.431 3.610589 30.263995 -2.871232
2007-04-17 12:01:12 51°12.162 2°43.901 11.4344 3.613179 30.285867 -2.871232
2007-04-17 12:02:11 51°12.158 2°43.818 11.4445 3.617944 30.325753 -2.871232
2007-04-17 12:03:11 51°12.192 2°43.746 11.4567 3.624366 30.375836 -2.871232
2007-04-17 12:04:11 51°12.252 2°43.738 11.4508 3.625505 30.378223 -2.871232
2007-04-17 12:05:11 51°12.298 2°43.781 11.4512 3.630685 30.435421 -2.871232
2007-04-17 12:06:12 51°12.331 2°43.824 11.4459 3.630064 30.428884 -2.871232
2007-04-17 12:07:11 51°12.36 2°43.865 11.4454 3.628717 30.416345 -2.871232
2007-04-17 12:08:11 51°12.39 2°43.965 11.4507 3.628095 30.410557 -2.871232
2007-04-17 12:09:11 51°12.351 2°44.099 11.4432 3.627267 30.403589 -2.871232
2007-04-17 12:10:11 51°12.292 2°44.259 11.4465 3.624884 30.382901 -2.871232
2007-04-17 12:11:11 51°12.286 2°44.332 11.4494 3.623641 30.371328 -2.871232
2007-04-17 12:12:12 51°12.293 2°44.358 11.4485 3.623019 30.360312 -2.871232
2007-04-17 12:13:12 51°12.298 2°44.386 11.4503 3.622087 30.354621 -2.871232
2007-04-17 12:14:11 51°12.303 2°44.415 11.453 3.62188 30.351946 -2.871232
2007-04-17 12:15:12 51°12.307 2°44.448 11.4608 3.623226 30.359252 -2.871232
2007-04-17 12:16:11 51°12.31 2°44.479 11.4705 3.623641 30.357135 -2.871232
2007-04-17 12:17:12 51°12.313 2°44.514 11.4822 3.623848 30.350852 -2.871232
2007-04-17 12:18:11 51°12.32 2°44.588 11.4908 3.624262 30.345007 -2.871232
2007-04-17 12:19:11 51°12.389 2°44.832 11.4719 3.623951 30.3451 -2.871232
2007-04-17 12:20:12 51°12.486 2°45.187 11.4551 3.617943 30.305614 -2.871232
2007-04-17 12:21:11 51°12.586 2°45.533 11.452 3.611003 30.249235 -2.871232
2007-04-17 12:22:12 51°12.699 2°45.882 11.4613 3.606445 30.206835 -2.871232
2007-04-17 12:23:12 51°12.812 2°46.225 11.4703 3.602509 30.162804 -2.871232
2007-04-17 12:24:12 51°12.924 2°46.567 11.4799 3.598262 30.116653 -2.871232
2007-04-17 12:25:11 51°13.034 2°46.904 11.5065 3.594739 30.069875 -2.871232
2007-04-17 12:26:12 51°13.146 2°47.248 11.5643 3.585934 29.954986 -2.871232
2007-04-17 12:27:12 51°13.259 2°47.589 11.6081 3.58179 29.876233 -2.871232
2007-04-17 12:28:12 51°13.371 2°47.928 11.6687 3.578475 29.801719 -2.871232
2007-04-17 12:29:12 51°13.484 2°48.267 11.715 3.57661 29.735733 -2.871232
2007-04-17 12:30:12 51°13.599 2°48.607 11.7466 3.576299 29.704568 -2.871232
2007-04-17 12:31:12 51°13.715 2°48.945 11.7643 3.576402 29.682346 -2.871232
2007-04-17 12:32:12 51°13.83 2°49.286 11.7846 3.575366 29.656173 -2.871232
2007-04-17 12:33:12 51°13.942 2°49.63 11.8061 3.574434 29.629541 -2.871232
2007-04-17 12:34:12 51°14.042 2°49.983 11.8284 3.572673 29.597485 -2.871232
2007-04-17 12:35:12 51°14.138 2°50.339 11.8674 3.570601 29.554702 -2.871232
2007-04-17 12:36:12 51°14.234 2°50.693 11.9031 3.567078 29.49295 -2.871232
2007-04-17 12:37:12 51°14.314 2°51.058 11.9254 3.563971 29.436555 -2.871232
2007-04-17 12:38:12 51°14.383 2°51.427 11.9413 3.563038 29.41231 -2.871232
2007-04-17 12:39:11 51°14.441 2°51.793 11.9471 3.561692 29.389285 -2.871232
2007-04-17 12:40:11 51°14.497 2°52.169 11.9159 3.562935 29.402805 -2.871232
2007-04-17 12:41:12 51°14.556 2°52.556 11.8659 3.56801 29.477162 -2.871232
2007-04-17 12:42:11 51°14.599 2°52.924 11.8632 3.568736 29.516762 -2.871232
2007-04-17 12:43:11 51°14.616 2°53.311 11.8817 3.565111 29.481337 -2.871232
2007-04-17 12:44:11 51°14.611 2°53.698 11.9226 3.560346 29.404755 -2.871232
2007-04-17 12:45:11 51°14.577 2°54.083 11.9436 3.555685 29.351357 -2.871232
2007-04-17 12:46:11 51°14.514 2°54.452 12.0273 3.549262 29.244313 -2.871232
2007-04-17 12:47:12 51°14.436 2°54.821 12.1362 3.55009 29.188997 -2.871232
2007-04-17 12:48:11 51°14.326 2°55.14 12.3773 3.553402 29.099059 -2.871232
2007-04-17 12:49:12 51°14.199 2°55.347 12.9423 3.542315 28.674453 -2.871232
2007-04-17 12:50:11 51°14.084 2°55.441 13.0697 3.47137 27.774026 -2.871232
2007-04-17 12:51:12 51°13.975 2°55.523 13.1728 3.364098 26.716502 -2.871232
2007-04-17 12:52:11 51°13.89 2°55.584 13.1631 3.370102 26.725528 -2.871232
2007-04-17 12:53:11 51°13.803 2°55.656 13.2888 3.363062 26.64632 -2.871232
2007-04-17 12:54:11 51°13.733 2°55.744 13.4949 3.226008 25.335782 -2.871232
2007-04-17 12:55:11 51°13.679 2°55.841 13.5382 3.145596 24.570753 -2.871232
2007-04-17 12:56:12 51°13.635 2°55.938 13.548 3.092513 24.051223 -2.871232
2007-04-17 12:57:12 51°13.607 2°56.015 13.6992 3.12252 24.293753 -2.871232
2007-04-17 12:58:11 51°13.593 2°56.079 13.7851 3.088373 23.916985 -2.871232
2007-04-17 12:59:12 51°13.586 2°56.115 13.7225 3.062403 23.669691 -2.871232
2007-04-17 13:00:12 51°13.583 2°56.127 13.6466 3.099962 24.034787 -2.871232